sensor_id;sensor_type;location;lat;lon;timestamp;P1;durP1;ratioP1;P2;durP2;ratioP2
21120;SDS011;12519;43.318;21.898;2022-07-10T00:00:53;9.0;;;9.0;;
21120;SDS011;12519;43.318;21.898;2022-07-10T00:05:30;9.0;;;9.0;;
21120;SDS011;12519;43.318;21.898;2022-07-10T00:10:08;14.0;;;10.0;;
21120;SDS011;12519;43.318;21.898;2022-07-10T00:14:45;14.0;;;10.0;;
21120;SDS011;12519;43.318;21.898;2022-07-10T00:19:21;18.0;;;12.0;;
21120;SDS011;12519;43.318;21.898;2022-07-10T00:23:58;18.0;;;12.0;;
21120;SDS011;12519;43.318;21.898;2022-07-10T00:28:34;16.0;;;12.0;;
21120;SDS011;12519;43.318;21.898;2022-07-10T00:33:10;16.0;;;12.0;;
21120;SDS011;12519;43.318;21.898;2022-07-10T00:37:46;13.0;;;11.0;;
21120;SDS011;12519;43.318;21.898;2022-07-10T00:42:22;13.0;;;11.0;;
21120;SDS011;12519;43.318;21.898;2022-07-10T00:46:59;12.0;;;11.0;;
21120;SDS011;12519;43.318;21.898;2022-07-10T00:51:36;12.0;;;11.0;;
21120;SDS011;12519;43.318;21.898;2022-07-10T00:56:15;12.0;;;11.0;;
21120;SDS011;12519;43.318;21.898;2022-07-10T01:01:01;11.0;;;11.0;;
21120;SDS011;12519;43.318;21.898;2022-07-10T01:05:39;11.0;;;11.0;;
21120;SDS011;12519;43.318;21.898;2022-07-10T01:10:16;12.0;;;11.0;;
21120;SDS011;12519;43.318;21.898;2022-07-10T01:14:53;12.0;;;11.0;;
21120;SDS011;12519;43.318;21.898;2022-07-10T01:19:31;12.0;;;11.0;;
21120;SDS011;12519;43.318;21.898;2022-07-10T01:24:08;12.0;;;11.0;;
21120;SDS011;12519;43.318;21.898;2022-07-10T01:28:47;13.0;;;12.0;;
21120;SDS011;12519;43.318;21.898;2022-07-10T01:33:27;13.0;;;12.0;;
21120;SDS011;12519;43.318;21.898;2022-07-10T01:38:04;14.0;;;12.0;;
21120;SDS011;12519;43.318;21.898;2022-07-10T01:42:41;14.0;;;12.0;;
21120;SDS011;12519;43.318;21.898;2022-07-10T01:47:17;16.0;;;13.0;;
21120;SDS011;12519;43.318;21.898;2022-07-10T01:51:53;16.0;;;13.0;;
21120;SDS011;12519;43.318;21.898;2022-07-10T01:56:29;18.0;;;14.0;;
21120;SDS011;12519;43.318;21.898;2022-07-10T02:01:06;18.0;;;14.0;;
21120;SDS011;12519;43.318;21.898;2022-07-10T02:05:48;18.0;;;14.0;;
21120;SDS011;12519;43.318;21.898;2022-07-10T02:10:24;16.0;;;14.0;;
21120;SDS011;12519;43.318;21.898;2022-07-10T02:15:01;16.0;;;14.0;;
21120;SDS011;12519;43.318;21.898;2022-07-10T02:19:41;14.0;;;13.0;;
21120;SDS011;12519;43.318;21.898;2022-07-10T02:24:17;14.0;;;13.0;;
21120;SDS011;12519;43.318;21.898;2022-07-10T02:28:54;13.0;;;12.0;;
21120;SDS011;12519;43.318;21.898;2022-07-10T02:33:30;13.0;;;12.0;;
21120;SDS011;12519;43.318;21.898;2022-07-10T02:38:07;12.0;;;11.0;;
21120;SDS011;12519;43.318;21.898;2022-07-10T02:42:44;12.0;;;11.0;;
21120;SDS011;12519;43.318;21.898;2022-07-10T02:47:20;11.0;;;10.0;;
21120;SDS011;12519;43.318;21.898;2022-07-10T02:51:57;11.0;;;10.0;;
21120;SDS011;12519;43.318;21.898;2022-07-10T02:56:33;11.0;;;10.0;;
21120;SDS011;12519;43.318;21.898;2022-07-10T03:01:09;10.0;;;10.0;;
21120;SDS011;12519;43.318;21.898;2022-07-10T03:05:45;10.0;;;10.0;;
21120;SDS011;12519;43.318;21.898;2022-07-10T03:10:22;10.0;;;9.0;;
21120;SDS011;12519;43.318;21.898;2022-07-10T03:14:58;10.0;;;9.0;;
21120;SDS011;12519;43.318;21.898;2022-07-10T03:19:34;9.0;;;8.0;;
21120;SDS011;12519;43.318;21.898;2022-07-10T03:24:11;9.0;;;8.0;;
21120;SDS011;12519;43.318;21.898;2022-07-10T03:28:47;10.0;;;9.0;;
21120;SDS011;12519;43.318;21.898;2022-07-10T03:33:24;10.0;;;9.0;;
21120;SDS011;12519;43.318;21.898;2022-07-10T03:38:00;12.0;;;10.0;;
21120;SDS011;12519;43.318;21.898;2022-07-10T03:42:37;12.0;;;10.0;;
21120;SDS011;12519;43.318;21.898;2022-07-10T03:47:14;12.0;;;10.0;;
21120;SDS011;12519;43.318;21.898;2022-07-10T03:51:50;12.0;;;10.0;;
21120;SDS011;12519;43.318;21.898;2022-07-10T03:56:27;12.0;;;10.0;;
21120;SDS011;12519;43.318;21.898;2022-07-10T04:01:03;11.0;;;10.0;;
21120;SDS011;12519;43.318;21.898;2022-07-10T04:05:40;11.0;;;10.0;;
21120;SDS011;12519;43.318;21.898;2022-07-10T04:10:16;12.0;;;11.0;;
21120;SDS011;12519;43.318;21.898;2022-07-10T04:14:55;12.0;;;11.0;;
21120;SDS011;12519;43.318;21.898;2022-07-10T04:19:31;13.0;;;12.0;;
21120;SDS011;12519;43.318;21.898;2022-07-10T04:24:08;13.0;;;12.0;;
21120;SDS011;12519;43.318;21.898;2022-07-10T04:28:44;20.0;;;18.0;;
21120;SDS011;12519;43.318;21.898;2022-07-10T04:33:20;20.0;;;18.0;;
21120;SDS011;12519;43.318;21.898;2022-07-10T04:37:57;26.0;;;23.0;;
21120;SDS011;12519;43.318;21.898;2022-07-10T04:42:34;26.0;;;23.0;;
21120;SDS011;12519;43.318;21.898;2022-07-10T04:47:11;20.0;;;18.0;;
21120;SDS011;12519;43.318;21.898;2022-07-10T04:51:48;20.0;;;18.0;;
21120;SDS011;12519;43.318;21.898;2022-07-10T04:56:25;20.0;;;18.0;;
21120;SDS011;12519;43.318;21.898;2022-07-10T05:01:02;13.0;;;13.0;;
21120;SDS011;12519;43.318;21.898;2022-07-10T05:05:40;13.0;;;13.0;;
21120;SDS011;12519;43.318;21.898;2022-07-10T05:10:17;18.0;;;16.0;;
21120;SDS011;12519;43.318;21.898;2022-07-10T05:14:55;18.0;;;16.0;;
21120;SDS011;12519;43.318;21.898;2022-07-10T05:19:32;24.0;;;18.0;;
21120;SDS011;12519;43.318;21.898;2022-07-10T05:24:08;24.0;;;18.0;;
21120;SDS011;12519;43.318;21.898;2022-07-10T05:28:45;40.0;;;32.0;;
21120;SDS011;12519;43.318;21.898;2022-07-10T05:33:21;40.0;;;32.0;;
21120;SDS011;12519;43.318;21.898;2022-07-10T05:37:57;56.0;;;45.0;;
21120;SDS011;12519;43.318;21.898;2022-07-10T05:42:34;56.0;;;45.0;;
21120;SDS011;12519;43.318;21.898;2022-07-10T05:47:10;47.0;;;38.0;;
21120;SDS011;12519;43.318;21.898;2022-07-10T05:51:46;47.0;;;38.0;;
21120;SDS011;12519;43.318;21.898;2022-07-10T05:56:22;47.0;;;38.0;;
21120;SDS011;12519;43.318;21.898;2022-07-10T06:00:58;38.0;;;30.0;;
21120;SDS011;12519;43.318;21.898;2022-07-10T06:05:34;38.0;;;30.0;;
21120;SDS011;12519;43.318;21.898;2022-07-10T06:10:11;26.0;;;21.0;;
21120;SDS011;12519;43.318;21.898;2022-07-10T06:14:48;26.0;;;21.0;;
21120;SDS011;12519;43.318;21.898;2022-07-10T06:19:24;13.0;;;12.0;;
21120;SDS011;12519;43.318;21.898;2022-07-10T06:24:01;13.0;;;12.0;;
21120;SDS011;12519;43.318;21.898;2022-07-10T06:28:39;14.0;;;10.0;;
21120;SDS011;12519;43.318;21.898;2022-07-10T06:33:16;14.0;;;10.0;;
21120;SDS011;12519;43.318;21.898;2022-07-10T06:37:53;16.0;;;7.0;;
21120;SDS011;12519;43.318;21.898;2022-07-10T06:42:30;16.0;;;7.0;;
21120;SDS011;12519;43.318;21.898;2022-07-10T06:47:07;12.0;;;7.0;;
21120;SDS011;12519;43.318;21.898;2022-07-10T06:51:54;12.0;;;7.0;;
21120;SDS011;12519;43.318;21.898;2022-07-10T06:56:31;12.0;;;7.0;;
21120;SDS011;12519;43.318;21.898;2022-07-10T07:01:09;8.0;;;7.0;;
21120;SDS011;12519;43.318;21.898;2022-07-10T07:05:46;8.0;;;7.0;;
21120;SDS011;12519;43.318;21.898;2022-07-10T07:10:22;9.0;;;8.0;;
21120;SDS011;12519;43.318;21.898;2022-07-10T07:14:59;9.0;;;8.0;;
21120;SDS011;12519;43.318;21.898;2022-07-10T07:19:36;10.0;;;8.0;;
21120;SDS011;12519;43.318;21.898;2022-07-10T07:24:14;10.0;;;8.0;;
21120;SDS011;12519;43.318;21.898;2022-07-10T07:28:53;12.0;;;9.0;;
21120;SDS011;12519;43.318;21.898;2022-07-10T07:33:29;12.0;;;9.0;;
21120;SDS011;12519;43.318;21.898;2022-07-10T07:38:06;13.0;;;10.0;;
21120;SDS011;12519;43.318;21.898;2022-07-10T07:42:43;13.0;;;10.0;;
21120;SDS011;12519;43.318;21.898;2022-07-10T07:47:20;16.0;;;12.0;;
21120;SDS011;12519;43.318;21.898;2022-07-10T07:51:56;16.0;;;12.0;;
21120;SDS011;12519;43.318;21.898;2022-07-10T07:56:33;16.0;;;12.0;;
21120;SDS011;12519;43.318;21.898;2022-07-10T08:01:09;18.0;;;15.0;;
21120;SDS011;12519;43.318;21.898;2022-07-10T08:05:46;18.0;;;15.0;;
21120;SDS011;12519;43.318;21.898;2022-07-10T08:10:24;16.0;;;12.0;;
21120;SDS011;12519;43.318;21.898;2022-07-10T08:15:03;16.0;;;12.0;;
21120;SDS011;12519;43.318;21.898;2022-07-10T08:19:45;13.0;;;10.0;;
21120;SDS011;12519;43.318;21.898;2022-07-10T08:24:22;13.0;;;10.0;;
21120;SDS011;12519;43.318;21.898;2022-07-10T08:28:58;12.0;;;10.0;;
21120;SDS011;12519;43.318;21.898;2022-07-10T08:33:34;12.0;;;10.0;;
21120;SDS011;12519;43.318;21.898;2022-07-10T08:38:10;12.0;;;9.0;;
21120;SDS011;12519;43.318;21.898;2022-07-10T08:42:46;12.0;;;9.0;;
21120;SDS011;12519;43.318;21.898;2022-07-10T08:47:23;12.0;;;9.0;;
21120;SDS011;12519;43.318;21.898;2022-07-10T08:52:02;12.0;;;9.0;;
21120;SDS011;12519;43.318;21.898;2022-07-10T08:57:06;12.0;;;9.0;;
21120;SDS011;12519;43.318;21.898;2022-07-10T09:01:52;12.0;;;9.0;;
21120;SDS011;12519;43.318;21.898;2022-07-10T09:06:32;12.0;;;9.0;;
21120;SDS011;12519;43.318;21.898;2022-07-10T09:11:12;10.0;;;8.0;;
21120;SDS011;12519;43.318;21.898;2022-07-10T09:15:54;10.0;;;8.0;;
21120;SDS011;12519;43.318;21.898;2022-07-10T09:20:33;7.0;;;6.0;;
21120;SDS011;12519;43.318;21.898;2022-07-10T09:25:16;7.0;;;6.0;;
21120;SDS011;12519;43.318;21.898;2022-07-10T09:29:53;6.0;;;6.0;;
21120;SDS011;12519;43.318;21.898;2022-07-10T09:34:34;6.0;;;6.0;;
21120;SDS011;12519;43.318;21.898;2022-07-10T09:39:23;6.0;;;5.0;;
21120;SDS011;12519;43.318;21.898;2022-07-10T09:44:01;6.0;;;5.0;;
21120;SDS011;12519;43.318;21.898;2022-07-10T09:48:41;8.0;;;6.0;;
21120;SDS011;12519;43.318;21.898;2022-07-10T09:53:19;8.0;;;6.0;;
21120;SDS011;12519;43.318;21.898;2022-07-10T09:57:59;9.0;;;8.0;;
21120;SDS011;12519;43.318;21.898;2022-07-10T10:02:45;9.0;;;8.0;;
21120;SDS011;12519;43.318;21.898;2022-07-10T10:07:33;8.0;;;7.0;;
21120;SDS011;12519;43.318;21.898;2022-07-10T10:12:17;8.0;;;7.0;;
21120;SDS011;12519;43.318;21.898;2022-07-10T10:17:29;6.0;;;6.0;;
21120;SDS011;12519;43.318;21.898;2022-07-10T10:22:13;6.0;;;6.0;;
21120;SDS011;12519;43.318;21.898;2022-07-10T10:26:56;6.0;;;6.0;;
21120;SDS011;12519;43.318;21.898;2022-07-10T10:31:36;6.0;;;6.0;;
21120;SDS011;12519;43.318;21.898;2022-07-10T10:36:43;6.0;;;6.0;;
21120;SDS011;12519;43.318;21.898;2022-07-10T10:41:23;7.0;;;6.0;;
21120;SDS011;12519;43.318;21.898;2022-07-10T10:46:13;7.0;;;6.0;;
21120;SDS011;12519;43.318;21.898;2022-07-10T10:51:00;7.0;;;6.0;;
21120;SDS011;12519;43.318;21.898;2022-07-10T10:55:37;7.0;;;6.0;;
21120;SDS011;12519;43.318;21.898;2022-07-10T11:00:14;7.0;;;6.0;;
21120;SDS011;12519;43.318;21.898;2022-07-10T11:05:42;7.0;;;6.0;;
21120;SDS011;12519;43.318;21.898;2022-07-10T11:10:27;8.0;;;6.0;;
21120;SDS011;12519;43.318;21.898;2022-07-10T11:15:09;8.0;;;6.0;;
21120;SDS011;12519;43.318;21.898;2022-07-10T11:19:52;8.0;;;7.0;;
21120;SDS011;12519;43.318;21.898;2022-07-10T11:24:33;8.0;;;7.0;;
21120;SDS011;12519;43.318;21.898;2022-07-10T11:30:07;7.0;;;6.0;;
21120;SDS011;12519;43.318;21.898;2022-07-10T11:34:43;7.0;;;6.0;;
21120;SDS011;12519;43.318;21.898;2022-07-10T11:39:20;6.0;;;6.0;;
21120;SDS011;12519;43.318;21.898;2022-07-10T11:43:58;6.0;;;6.0;;
21120;SDS011;12519;43.318;21.898;2022-07-10T11:48:39;10.0;;;8.0;;
21120;SDS011;12519;43.318;21.898;2022-07-10T11:53:22;10.0;;;8.0;;
21120;SDS011;12519;43.318;21.898;2022-07-10T11:58:12;13.0;;;9.0;;
21120;SDS011;12519;43.318;21.898;2022-07-10T12:02:55;13.0;;;9.0;;
21120;SDS011;12519;43.318;21.898;2022-07-10T12:07:57;10.0;;;8.0;;
21120;SDS011;12519;43.318;21.898;2022-07-10T12:12:35;10.0;;;8.0;;
21120;SDS011;12519;43.318;21.898;2022-07-10T12:17:12;10.0;;;8.0;;
21120;SDS011;12519;43.318;21.898;2022-07-10T12:21:49;6.0;;;6.0;;
21120;SDS011;12519;43.318;21.898;2022-07-10T12:26:31;6.0;;;6.0;;
21120;SDS011;12519;43.318;21.898;2022-07-10T12:31:19;6.0;;;6.0;;
21120;SDS011;12519;43.318;21.898;2022-07-10T12:36:06;6.0;;;6.0;;
21120;SDS011;12519;43.318;21.898;2022-07-10T12:40:43;7.0;;;7.0;;
21120;SDS011;12519;43.318;21.898;2022-07-10T12:45:21;7.0;;;7.0;;
21120;SDS011;12519;43.318;21.898;2022-07-10T12:50:01;8.0;;;7.0;;
21120;SDS011;12519;43.318;21.898;2022-07-10T12:54:44;8.0;;;7.0;;
21120;SDS011;12519;43.318;21.898;2022-07-10T12:59:20;9.0;;;7.0;;
21120;SDS011;12519;43.318;21.898;2022-07-10T13:04:00;9.0;;;7.0;;
21120;SDS011;12519;43.318;21.898;2022-07-10T13:08:43;10.0;;;8.0;;
21120;SDS011;12519;43.318;21.898;2022-07-10T13:13:22;10.0;;;8.0;;
21120;SDS011;12519;43.318;21.898;2022-07-10T13:17:59;10.0;;;9.0;;
21120;SDS011;12519;43.318;21.898;2022-07-10T13:22:36;10.0;;;9.0;;
21120;SDS011;12519;43.318;21.898;2022-07-10T13:27:12;10.0;;;9.0;;
21120;SDS011;12519;43.318;21.898;2022-07-10T13:31:50;10.0;;;10.0;;
21120;SDS011;12519;43.318;21.898;2022-07-10T13:36:26;10.0;;;10.0;;
21120;SDS011;12519;43.318;21.898;2022-07-10T13:41:03;11.0;;;10.0;;
21120;SDS011;12519;43.318;21.898;2022-07-10T13:45:40;11.0;;;10.0;;
21120;SDS011;12519;43.318;21.898;2022-07-10T13:50:17;10.0;;;9.0;;
21120;SDS011;12519;43.318;21.898;2022-07-10T13:54:54;10.0;;;9.0;;
21120;SDS011;12519;43.318;21.898;2022-07-10T13:59:30;9.0;;;8.0;;
21120;SDS011;12519;43.318;21.898;2022-07-10T14:04:06;9.0;;;8.0;;
21120;SDS011;12519;43.318;21.898;2022-07-10T14:08:43;9.0;;;8.0;;
21120;SDS011;12519;43.318;21.898;2022-07-10T14:13:19;9.0;;;8.0;;
21120;SDS011;12519;43.318;21.898;2022-07-10T14:17:56;9.0;;;8.0;;
21120;SDS011;12519;43.318;21.898;2022-07-10T14:22:33;9.0;;;8.0;;
21120;SDS011;12519;43.318;21.898;2022-07-10T14:27:12;9.0;;;8.0;;
21120;SDS011;12519;43.318;21.898;2022-07-10T14:31:49;8.0;;;8.0;;
21120;SDS011;12519;43.318;21.898;2022-07-10T14:36:27;8.0;;;8.0;;
21120;SDS011;12519;43.318;21.898;2022-07-10T14:41:04;7.0;;;7.0;;
21120;SDS011;12519;43.318;21.898;2022-07-10T14:45:42;7.0;;;7.0;;
21120;SDS011;12519;43.318;21.898;2022-07-10T14:50:19;6.0;;;6.0;;
21120;SDS011;12519;43.318;21.898;2022-07-10T14:54:56;6.0;;;6.0;;
21120;SDS011;12519;43.318;21.898;2022-07-10T14:59:33;5.0;;;5.0;;
21120;SDS011;12519;43.318;21.898;2022-07-10T15:04:09;5.0;;;5.0;;
21120;SDS011;12519;43.318;21.898;2022-07-10T15:08:46;5.0;;;5.0;;
21120;SDS011;12519;43.318;21.898;2022-07-10T15:13:23;5.0;;;5.0;;
21120;SDS011;12519;43.318;21.898;2022-07-10T15:18:00;5.0;;;5.0;;
21120;SDS011;12519;43.318;21.898;2022-07-10T15:22:37;5.0;;;5.0;;
21120;SDS011;12519;43.318;21.898;2022-07-10T15:27:14;5.0;;;5.0;;
21120;SDS011;12519;43.318;21.898;2022-07-10T15:31:51;6.0;;;6.0;;
21120;SDS011;12519;43.318;21.898;2022-07-10T15:36:28;6.0;;;6.0;;
21120;SDS011;12519;43.318;21.898;2022-07-10T15:41:05;7.0;;;6.0;;
21120;SDS011;12519;43.318;21.898;2022-07-10T15:45:43;7.0;;;6.0;;
21120;SDS011;12519;43.318;21.898;2022-07-10T15:50:19;7.0;;;6.0;;
21120;SDS011;12519;43.318;21.898;2022-07-10T15:54:57;7.0;;;6.0;;
21120;SDS011;12519;43.318;21.898;2022-07-10T16:08:48;10.0;;;7.0;;
21120;SDS011;12519;43.318;21.898;2022-07-10T16:13:24;10.0;;;7.0;;
21120;SDS011;12519;43.318;21.898;2022-07-10T16:18:01;10.0;;;7.0;;
21120;SDS011;12519;43.318;21.898;2022-07-10T16:22:37;10.0;;;7.0;;
21120;SDS011;12519;43.318;21.898;2022-07-10T16:27:13;10.0;;;7.0;;
21120;SDS011;12519;43.318;21.898;2022-07-10T16:31:49;9.0;;;6.0;;
21120;SDS011;12519;43.318;21.898;2022-07-10T16:36:25;9.0;;;6.0;;
21120;SDS011;12519;43.318;21.898;2022-07-10T16:41:01;8.0;;;6.0;;
21120;SDS011;12519;43.318;21.898;2022-07-10T16:45:40;8.0;;;6.0;;
21120;SDS011;12519;43.318;21.898;2022-07-10T16:50:20;8.0;;;6.0;;
21120;SDS011;12519;43.318;21.898;2022-07-10T16:54:58;8.0;;;6.0;;
21120;SDS011;12519;43.318;21.898;2022-07-10T16:59:34;8.0;;;7.0;;
21120;SDS011;12519;43.318;21.898;2022-07-10T17:04:11;8.0;;;7.0;;
21120;SDS011;12519;43.318;21.898;2022-07-10T17:08:48;6.0;;;6.0;;
21120;SDS011;12519;43.318;21.898;2022-07-10T17:13:24;6.0;;;6.0;;
21120;SDS011;12519;43.318;21.898;2022-07-10T17:18:01;6.0;;;6.0;;
21120;SDS011;12519;43.318;21.898;2022-07-10T17:22:39;5.0;;;5.0;;
21120;SDS011;12519;43.318;21.898;2022-07-10T17:27:17;5.0;;;5.0;;
21120;SDS011;12519;43.318;21.898;2022-07-10T17:31:55;4.0;;;4.0;;
21120;SDS011;12519;43.318;21.898;2022-07-10T17:36:32;4.0;;;4.0;;
21120;SDS011;12519;43.318;21.898;2022-07-10T17:41:09;3.0;;;3.0;;
21120;SDS011;12519;43.318;21.898;2022-07-10T17:45:46;3.0;;;3.0;;
21120;SDS011;12519;43.318;21.898;2022-07-10T17:50:23;3.0;;;3.0;;
21120;SDS011;12519;43.318;21.898;2022-07-10T17:55:00;3.0;;;3.0;;
21120;SDS011;12519;43.318;21.898;2022-07-10T18:08:52;5.0;;;5.0;;
21120;SDS011;12519;43.318;21.898;2022-07-10T18:13:29;5.0;;;5.0;;
21120;SDS011;12519;43.318;21.898;2022-07-10T18:18:05;5.0;;;5.0;;
21120;SDS011;12519;43.318;21.898;2022-07-10T18:22:42;5.0;;;5.0;;
21120;SDS011;12519;43.318;21.898;2022-07-10T18:27:21;5.0;;;5.0;;
21120;SDS011;12519;43.318;21.898;2022-07-10T18:31:58;5.0;;;5.0;;
21120;SDS011;12519;43.318;21.898;2022-07-10T18:36:35;5.0;;;5.0;;
21120;SDS011;12519;43.318;21.898;2022-07-10T18:41:12;5.0;;;5.0;;
21120;SDS011;12519;43.318;21.898;2022-07-10T18:45:48;5.0;;;5.0;;
21120;SDS011;12519;43.318;21.898;2022-07-10T18:50:25;4.0;;;4.0;;
21120;SDS011;12519;43.318;21.898;2022-07-10T18:55:01;4.0;;;4.0;;
21120;SDS011;12519;43.318;21.898;2022-07-10T18:59:37;4.0;;;4.0;;
21120;SDS011;12519;43.318;21.898;2022-07-10T19:04:13;4.0;;;4.0;;
21120;SDS011;12519;43.318;21.898;2022-07-10T19:08:49;6.0;;;6.0;;
21120;SDS011;12519;43.318;21.898;2022-07-10T19:13:26;6.0;;;6.0;;
21120;SDS011;12519;43.318;21.898;2022-07-10T19:18:02;6.0;;;6.0;;
21120;SDS011;12519;43.318;21.898;2022-07-10T19:22:39;7.0;;;7.0;;
21120;SDS011;12519;43.318;21.898;2022-07-10T19:27:15;7.0;;;7.0;;
21120;SDS011;12519;43.318;21.898;2022-07-10T19:31:52;9.0;;;7.0;;
21120;SDS011;12519;43.318;21.898;2022-07-10T19:36:28;9.0;;;7.0;;
21120;SDS011;12519;43.318;21.898;2022-07-10T19:41:06;11.0;;;7.0;;
21120;SDS011;12519;43.318;21.898;2022-07-10T19:45:43;11.0;;;7.0;;
21120;SDS011;12519;43.318;21.898;2022-07-10T19:50:20;11.0;;;7.0;;
21120;SDS011;12519;43.318;21.898;2022-07-10T19:54:57;11.0;;;7.0;;
21120;SDS011;12519;43.318;21.898;2022-07-10T19:59:35;11.0;;;7.0;;
21120;SDS011;12519;43.318;21.898;2022-07-10T20:04:13;11.0;;;7.0;;
21120;SDS011;12519;43.318;21.898;2022-07-10T20:08:51;10.0;;;8.0;;
21120;SDS011;12519;43.318;21.898;2022-07-10T20:13:28;10.0;;;8.0;;
21120;SDS011;12519;43.318;21.898;2022-07-10T20:18:04;10.0;;;8.0;;
21120;SDS011;12519;43.318;21.898;2022-07-10T20:22:41;9.0;;;8.0;;
21120;SDS011;12519;43.318;21.898;2022-07-10T20:27:19;9.0;;;8.0;;
21120;SDS011;12519;43.318;21.898;2022-07-10T20:31:55;10.0;;;8.0;;
21120;SDS011;12519;43.318;21.898;2022-07-10T20:36:32;10.0;;;8.0;;
21120;SDS011;12519;43.318;21.898;2022-07-10T20:41:10;10.0;;;7.0;;
21120;SDS011;12519;43.318;21.898;2022-07-10T20:45:47;10.0;;;7.0;;
21120;SDS011;12519;43.318;21.898;2022-07-10T20:50:24;16.0;;;12.0;;
21120;SDS011;12519;43.318;21.898;2022-07-10T20:55:02;16.0;;;12.0;;
21120;SDS011;12519;43.318;21.898;2022-07-10T20:59:42;22.0;;;18.0;;
21120;SDS011;12519;43.318;21.898;2022-07-10T21:04:20;22.0;;;18.0;;
21120;SDS011;12519;43.318;21.898;2022-07-10T21:08:58;17.0;;;13.0;;
21120;SDS011;12519;43.318;21.898;2022-07-10T21:13:34;17.0;;;13.0;;
21120;SDS011;12519;43.318;21.898;2022-07-10T21:18:12;17.0;;;13.0;;
21120;SDS011;12519;43.318;21.898;2022-07-10T21:22:49;12.0;;;8.0;;
21120;SDS011;12519;43.318;21.898;2022-07-10T21:27:26;12.0;;;8.0;;
21120;SDS011;12519;43.318;21.898;2022-07-10T21:32:04;8.0;;;6.0;;
21120;SDS011;12519;43.318;21.898;2022-07-10T21:36:42;8.0;;;6.0;;
21120;SDS011;12519;43.318;21.898;2022-07-10T21:41:19;4.0;;;4.0;;
21120;SDS011;12519;43.318;21.898;2022-07-10T21:45:55;4.0;;;4.0;;
21120;SDS011;12519;43.318;21.898;2022-07-10T21:50:32;4.0;;;4.0;;
21120;SDS011;12519;43.318;21.898;2022-07-10T21:55:09;4.0;;;4.0;;
21120;SDS011;12519;43.318;21.898;2022-07-10T21:59:46;5.0;;;4.0;;
21120;SDS011;12519;43.318;21.898;2022-07-10T22:04:23;5.0;;;4.0;;
21120;SDS011;12519;43.318;21.898;2022-07-10T22:08:59;4.0;;;4.0;;
21120;SDS011;12519;43.318;21.898;2022-07-10T22:13:36;4.0;;;4.0;;
21120;SDS011;12519;43.318;21.898;2022-07-10T22:18:13;4.0;;;4.0;;
21120;SDS011;12519;43.318;21.898;2022-07-10T22:22:49;3.0;;;3.0;;
21120;SDS011;12519;43.318;21.898;2022-07-10T22:27:26;3.0;;;3.0;;
21120;SDS011;12519;43.318;21.898;2022-07-10T22:32:05;4.0;;;4.0;;
21120;SDS011;12519;43.318;21.898;2022-07-10T22:36:44;4.0;;;4.0;;
21120;SDS011;12519;43.318;21.898;2022-07-10T22:41:22;4.0;;;4.0;;
21120;SDS011;12519;43.318;21.898;2022-07-10T22:45:59;4.0;;;4.0;;
21120;SDS011;12519;43.318;21.898;2022-07-10T22:50:37;4.0;;;4.0;;
21120;SDS011;12519;43.318;21.898;2022-07-10T22:55:14;4.0;;;4.0;;
21120;SDS011;12519;43.318;21.898;2022-07-10T22:59:50;4.0;;;4.0;;
21120;SDS011;12519;43.318;21.898;2022-07-10T23:04:27;4.0;;;4.0;;
21120;SDS011;12519;43.318;21.898;2022-07-10T23:09:04;4.0;;;4.0;;
21120;SDS011;12519;43.318;21.898;2022-07-10T23:13:41;4.0;;;4.0;;
21120;SDS011;12519;43.318;21.898;2022-07-10T23:18:18;4.0;;;4.0;;
21120;SDS011;12519;43.318;21.898;2022-07-10T23:22:55;3.0;;;3.0;;
21120;SDS011;12519;43.318;21.898;2022-07-10T23:27:32;3.0;;;3.0;;
21120;SDS011;12519;43.318;21.898;2022-07-10T23:32:10;3.0;;;3.0;;
21120;SDS011;12519;43.318;21.898;2022-07-10T23:36:47;3.0;;;3.0;;
21120;SDS011;12519;43.318;21.898;2022-07-10T23:41:24;3.0;;;3.0;;
21120;SDS011;12519;43.318;21.898;2022-07-10T23:46:00;3.0;;;3.0;;
21120;SDS011;12519;43.318;21.898;2022-07-10T23:50:37;4.0;;;3.0;;
21120;SDS011;12519;43.318;21.898;2022-07-10T23:55:14;4.0;;;3.0;;
21120;SDS011;12519;43.318;21.898;2022-07-10T23:59:50;4.0;;;3.0;;
